Time;durP1;ratioP1;P1;durP2;ratioP2;P2;SDS_P1;SDS_P2;PMS_P1;PMS_P2;Temp;Humidity;BMP_temperature;BMP_pressure;BME280_temperature;BME280_humidity;BME280_pressure;Samples;Min_cycle;Max_cycle;Signal;HPM_P1;HPM_P2
2023/12/31 00:01:42;;;;;;;0.98;0.90;;;9.60;99.90;;;;;;6138928;23;20018;-35
2023/12/31 00:04:07;;;;;;;1.00;0.90;;;9.60;99.90;;;;;;6138149;23;20020;-36
2023/12/31 00:06:33;;;;;;;1.83;1.00;;;9.70;99.90;;;;;;6138656;23;20504;-35
2023/12/31 00:08:58;;;;;;;1.48;1.27;;;9.60;99.90;;;;;;6137763;23;20009;-36
2023/12/31 00:11:27;;;;;;;1.92;1.08;;;9.70;99.90;;;;;;6138313;23;20496;-37
2023/12/31 00:13:53;;;;;;;1.13;0.85;;;9.80;99.90;;;;;;6137989;23;20020;-36
2023/12/31 00:16:18;;;;;;;1.65;0.80;;;9.80;99.90;;;;;;6139221;23;20025;-35
2023/12/31 00:18:44;;;;;;;1.02;0.93;;;9.80;99.90;;;;;;6139219;23;20037;-38
2023/12/31 00:21:10;;;;;;;2.13;0.70;;;9.80;99.90;;;;;;6139444;23;20005;-37
2023/12/31 00:23:35;;;;;;;1.52;0.77;;;9.80;99.90;;;;;;6141382;23;20088;-36
2023/12/31 00:26:01;;;;;;;1.00;0.75;;;9.80;99.90;;;;;;6140023;23;20001;-37
2023/12/31 00:28:27;;;;;;;1.40;0.80;;;9.80;99.90;;;;;;6140324;23;20423;-36
2023/12/31 00:30:55;;;;;;;1.25;0.90;;;9.80;99.90;;;;;;6140835;23;20694;-43
2023/12/31 00:33:21;;;;;;;1.05;0.57;;;9.80;99.90;;;;;;6141088;23;20001;-37
2023/12/31 00:35:47;;;;;;;2.13;0.60;;;9.80;99.90;;;;;;6141521;23;20036;-36
2023/12/31 00:38:13;;;;;;;1.65;0.77;;;9.80;99.90;;;;;;6140862;23;20759;-36
2023/12/31 00:40:38;;;;;;;0.47;0.47;;;9.80;99.90;;;;;;6141181;23;20013;-36
2023/12/31 00:43:04;;;;;;;0.77;0.60;;;9.80;99.90;;;;;;6139633;23;20489;-36
2023/12/31 00:45:29;;;;;;;0.82;0.57;;;9.80;99.90;;;;;;6140618;23;20009;-36
2023/12/31 00:47:55;;;;;;;0.68;0.60;;;9.90;99.90;;;;;;6139592;23;20006;-36
2023/12/31 00:50:20;;;;;;;1.48;0.80;;;9.90;99.90;;;;;;6139577;23;20101;-35
2023/12/31 00:52:46;;;;;;;2.30;1.08;;;9.90;99.90;;;;;;6140632;23;20017;-39
2023/12/31 00:55:12;;;;;;;1.00;0.70;;;9.90;99.90;;;;;;6139321;23;20013;-36
2023/12/31 00:57:37;;;;;;;1.77;0.77;;;9.90;99.90;;;;;;6140300;23;20009;-36
2023/12/31 01:00:05;;;;;;;0.85;0.68;;;10.00;99.90;;;;;;6140546;23;20137;-36
2023/12/31 01:02:30;;;;;;;0.93;0.77;;;10.00;99.90;;;;;;6140267;23;20092;-35
2023/12/31 01:04:56;;;;;;;0.70;0.70;;;10.00;99.90;;;;;;6139002;23;20097;-36
2023/12/31 01:07:22;;;;;;;0.52;0.52;;;10.00;99.90;;;;;;6139855;23;20133;-36
2023/12/31 01:09:47;;;;;;;1.05;0.80;;;10.00;99.90;;;;;;6140297;23;20006;-36
2023/12/31 01:12:13;;;;;;;1.67;0.82;;;10.00;99.90;;;;;;6139390;23;20008;-35
2023/12/31 01:14:39;;;;;;;0.70;0.70;;;10.00;99.90;;;;;;6141162;23;20017;-35
2023/12/31 01:17:05;;;;;;;2.08;0.80;;;10.10;99.90;;;;;;6139175;23;20562;-35
2023/12/31 01:19:30;;;;;;;0.80;0.80;;;10.10;99.90;;;;;;6140174;23;20080;-35
2023/12/31 01:21:56;;;;;;;0.77;0.60;;;10.10;99.90;;;;;;6140939;23;20305;-37
2023/12/31 01:24:21;;;;;;;0.85;0.50;;;10.20;99.90;;;;;;6138903;23;20021;-36
2023/12/31 01:26:47;;;;;;;1.00;0.70;;;10.20;99.90;;;;;;6140133;23;20005;-35
2023/12/31 01:29:13;;;;;;;0.70;0.68;;;10.20;99.90;;;;;;6139002;23;20748;-36
2023/12/31 01:31:38;;;;;;;1.02;0.70;;;10.20;99.90;;;;;;6140371;23;20009;-37
2023/12/31 01:34:04;;;;;;;1.75;0.77;;;10.20;99.90;;;;;;6140780;23;20021;-37
2023/12/31 01:36:30;;;;;;;1.67;0.75;;;10.20;99.90;;;;;;6140481;23;20005;-37
2023/12/31 01:38:58;;;;;;;1.15;0.82;;;10.20;99.90;;;;;;6139994;23;20084;-37
2023/12/31 01:41:24;;;;;;;0.65;0.60;;;10.20;99.90;;;;;;6139480;23;20017;-37
2023/12/31 01:43:49;;;;;;;2.38;0.98;;;10.20;99.90;;;;;;6140115;23;20017;-36
2023/12/31 01:46:27;;;;;;;0.90;0.70;;;10.20;99.90;;;;;;6140023;23;20032;-36
2023/12/31 01:48:54;;;;;;;1.00;0.73;;;10.20;99.90;;;;;;6141027;23;20006;-36
2023/12/31 01:51:20;;;;;;;1.15;0.70;;;10.30;99.90;;;;;;6140532;23;20009;-36
2023/12/31 01:53:46;;;;;;;0.95;0.60;;;10.20;99.90;;;;;;6140224;23;20080;-37
2023/12/31 01:56:12;;;;;;;1.30;0.70;;;10.20;99.90;;;;;;6139330;23;19997;-37
2023/12/31 01:58:38;;;;;;;0.98;0.60;;;10.20;99.90;;;;;;6140380;23;20006;-36
2023/12/31 02:01:05;;;;;;;0.60;0.50;;;10.10;99.90;;;;;;6136957;23;20013;-36
2023/12/31 02:03:30;;;;;;;0.80;0.80;;;10.10;99.90;;;;;;6139717;23;20124;-36
2023/12/31 02:05:56;;;;;;;0.60;0.60;;;10.20;99.90;;;;;;6138881;23;20097;-36
2023/12/31 02:08:23;;;;;;;0.70;0.70;;;10.10;99.90;;;;;;6137920;23;20334;-37
2023/12/31 02:10:51;;;;;;;0.88;0.60;;;10.10;99.90;;;;;;6140620;23;20795;-36
2023/12/31 02:13:17;;;;;;;1.55;0.73;;;10.10;99.90;;;;;;6139140;23;20009;-37
2023/12/31 02:15:42;;;;;;;1.67;0.80;;;10.00;99.90;;;;;;6139086;23;20005;-37
2023/12/31 02:18:08;;;;;;;1.30;0.85;;;10.00;99.90;;;;;;6138607;23;20005;-36
2023/12/31 02:20:34;;;;;;;0.93;0.80;;;10.00;99.90;;;;;;6138369;23;20445;-38
2023/12/31 02:23:00;;;;;;;0.65;0.65;;;10.00;99.90;;;;;;6139895;23;20539;-37
2023/12/31 02:25:29;;;;;;;0.60;0.60;;;10.00;99.90;;;;;;6139463;23;20105;-36
2023/12/31 02:27:55;;;;;;;0.75;0.65;;;9.90;99.90;;;;;;6138900;23;20409;-36
2023/12/31 02:30:22;;;;;;;2.10;0.77;;;9.90;99.90;;;;;;6139656;23;20009;-38
2023/12/31 02:32:48;;;;;;;1.70;0.80;;;9.90;99.90;;;;;;6138911;23;20036;-36
2023/12/31 02:35:14;;;;;;;1.65;0.90;;;9.90;99.90;;;;;;6137910;23;20138;-36
2023/12/31 02:37:40;;;;;;;1.25;0.80;;;9.90;99.90;;;;;;6140221;23;20032;-37
2023/12/31 02:40:06;;;;;;;1.08;0.70;;;9.90;99.90;;;;;;6138911;23;20079;-36
2023/12/31 02:42:31;;;;;;;4.28;0.82;;;9.90;99.90;;;;;;6138807;23;20012;-36
2023/12/31 02:44:57;;;;;;;1.25;0.90;;;9.90;99.90;;;;;;6138821;23;20025;-36
2023/12/31 02:47:22;;;;;;;1.52;1.00;;;9.90;99.90;;;;;;6138566;23;20029;-36
2023/12/31 02:49:48;;;;;;;1.35;1.00;;;9.80;99.90;;;;;;6139655;23;20779;-36
2023/12/31 02:52:15;;;;;;;0.85;0.82;;;9.80;99.90;;;;;;6137953;23;20005;-37
2023/12/31 02:54:45;;;;;;;0.85;0.85;;;9.80;99.90;;;;;;6139892;23;20002;-37
2023/12/31 02:57:11;;;;;;;1.77;1.10;;;9.80;99.90;;;;;;6138135;23;20009;-37
2023/12/31 02:59:37;;;;;;;1.17;0.90;;;9.80;99.90;;;;;;6138999;23;20015;-37
2023/12/31 03:02:04;;;;;;;2.75;1.30;;;9.80;99.90;;;;;;6138671;23;20080;-36
2023/12/31 03:04:29;;;;;;;1.10;1.00;;;9.80;99.90;;;;;;6138323;23;20025;-36
2023/12/31 03:06:55;;;;;;;1.13;0.88;;;9.80;99.90;;;;;;6139108;23;20006;-37
2023/12/31 03:09:21;;;;;;;0.95;0.85;;;9.80;99.90;;;;;;6138772;23;20089;-36
2023/12/31 03:11:47;;;;;;;1.65;0.70;;;9.80;99.90;;;;;;6138766;23;20010;-37
2023/12/31 03:14:14;;;;;;;2.05;0.90;;;9.80;99.90;;;;;;6137741;23;20006;-37
2023/12/31 03:16:44;;;;;;;0.70;0.70;;;9.80;99.90;;;;;;6138162;23;20752;-35
2023/12/31 03:19:11;;;;;;;1.15;0.98;;;9.80;99.90;;;;;;6137983;23;20006;-37
2023/12/31 03:21:36;;;;;;;1.10;0.95;;;9.80;99.90;;;;;;6139622;23;20056;-36
2023/12/31 03:24:02;;;;;;;0.80;0.73;;;9.80;99.90;;;;;;6137188;23;20017;-37
2023/12/31 03:26:27;;;;;;;1.00;0.80;;;9.80;99.90;;;;;;6138388;23;20065;-35
2023/12/31 03:28:53;;;;;;;1.27;0.90;;;9.80;99.90;;;;;;6139296;23;20009;-35
2023/12/31 03:31:19;;;;;;;1.17;0.80;;;9.80;99.90;;;;;;6137099;23;20012;-35
2023/12/31 03:33:46;;;;;;;3.30;0.80;;;9.80;99.90;;;;;;6138806;23;20012;-35
2023/12/31 03:36:11;;;;;;;1.60;1.10;;;9.80;99.90;;;;;;6139215;23;20028;-36
2023/12/31 03:38:37;;;;;;;1.50;0.82;;;9.80;99.90;;;;;;6138588;23;20014;-35
2023/12/31 03:41:03;;;;;;;1.10;1.00;;;9.80;99.90;;;;;;6138379;23;20009;-35
2023/12/31 03:43:28;;;;;;;0.95;0.93;;;9.80;99.90;;;;;;6138038;23;20014;-36
2023/12/31 03:45:54;;;;;;;1.65;0.70;;;9.80;99.90;;;;;;6138526;23;20038;-35
2023/12/31 03:48:20;;;;;;;2.13;0.95;;;9.80;99.90;;;;;;6139000;23;20009;-36
2023/12/31 03:50:45;;;;;;;0.80;0.80;;;9.80;99.90;;;;;;6138431;23;20010;-36
2023/12/31 03:53:11;;;;;;;0.90;0.90;;;9.90;99.90;;;;;;6135033;23;20056;-36
2023/12/31 03:55:36;;;;;;;1.67;1.05;;;9.80;99.90;;;;;;6138061;23;20013;-36
2023/12/31 03:58:02;;;;;;;1.00;0.70;;;9.80;99.90;;;;;;6136940;23;20009;-36
2023/12/31 04:00:28;;;;;;;0.90;0.90;;;9.80;99.90;;;;;;6137922;23;20797;-37
2023/12/31 04:02:53;;;;;;;0.95;0.80;;;9.80;99.90;;;;;;6139291;23;20759;-37
2023/12/31 04:05:19;;;;;;;1.00;0.90;;;9.80;99.90;;;;;;6137980;23;20009;-37
2023/12/31 04:07:45;;;;;;;1.00;0.85;;;9.80;99.90;;;;;;6140786;23;20012;-37
2023/12/31 04:10:11;;;;;;;0.80;0.80;;;9.80;99.90;;;;;;6140505;23;20381;-35
2023/12/31 04:12:36;;;;;;;1.05;0.85;;;9.80;99.90;;;;;;6141844;23;20405;-36
2023/12/31 04:15:02;;;;;;;0.90;0.73;;;9.80;99.90;;;;;;6139722;23;20112;-36
2023/12/31 04:17:28;;;;;;;1.23;0.93;;;9.80;99.90;;;;;;6140319;23;20117;-35
2023/12/31 04:19:53;;;;;;;0.80;0.80;;;9.80;99.90;;;;;;6140763;23;20439;-37
2023/12/31 04:22:19;;;;;;;1.48;0.75;;;9.70;99.90;;;;;;6139558;23;20013;-36
2023/12/31 04:24:44;;;;;;;1.02;0.93;;;9.70;99.90;;;;;;6140072;23;20524;-37
2023/12/31 04:27:10;;;;;;;1.00;0.90;;;9.70;99.90;;;;;;6138387;23;20563;-36
2023/12/31 04:29:36;;;;;;;2.03;1.27;;;9.70;99.90;;;;;;6140224;23;20117;-37
2023/12/31 04:32:01;;;;;;;1.20;1.10;;;9.70;99.90;;;;;;6140695;23;20005;-35
2023/12/31 04:34:27;;;;;;;1.50;1.10;;;9.70;99.90;;;;;;6139477;23;20068;-36
2023/12/31 04:36:55;;;;;;;1.67;1.40;;;9.70;99.90;;;;;;6141261;23;20041;-36
2023/12/31 04:39:20;;;;;;;2.85;1.70;;;9.70;99.90;;;;;;6140722;23;20016;-36
2023/12/31 04:41:46;;;;;;;3.28;2.00;;;9.70;99.90;;;;;;6140621;23;20009;-36
2023/12/31 04:44:11;;;;;;;6.65;3.17;;;9.70;99.90;;;;;;6140780;23;20092;-38
2023/12/31 04:46:37;;;;;;;8.27;4.78;;;9.70;99.90;;;;;;6141294;23;20076;-36
2023/12/31 04:49:03;;;;;;;12.32;5.47;;;9.70;99.90;;;;;;6140411;23;20005;-36
2023/12/31 04:51:30;;;;;;;13.18;6.40;;;9.70;99.90;;;;;;6140616;23;20010;-36
2023/12/31 04:53:56;;;;;;;11.82;6.93;;;9.70;99.90;;;;;;6141518;23;20001;-36
2023/12/31 04:56:24;;;;;;;11.27;5.95;;;9.70;99.90;;;;;;6139914;23;20006;-37
2023/12/31 04:58:54;;;;;;;11.77;5.15;;;9.70;99.90;;;;;;6141115;23;20001;-37
2023/12/31 05:01:20;;;;;;;14.63;6.57;;;9.70;99.90;;;;;;6139970;23;20008;-37
2023/12/31 05:03:49;;;;;;;11.73;6.20;;;9.70;99.90;;;;;;6139731;23;20017;-37
2023/12/31 05:06:18;;;;;;;13.82;6.82;;;9.80;99.90;;;;;;6139929;23;20343;-41
2023/12/31 05:08:44;;;;;;;11.38;5.88;;;9.70;99.90;;;;;;6140771;23;20135;-36
2023/12/31 05:11:11;;;;;;;13.30;6.25;;;9.70;99.90;;;;;;6139691;23;20784;-36
2023/12/31 05:13:38;;;;;;;9.18;5.60;;;9.70;99.90;;;;;;6141158;23;20523;-36
2023/12/31 05:16:05;;;;;;;16.50;6.82;;;9.70;99.90;;;;;;6140177;23;20012;-36
2023/12/31 05:18:30;;;;;;;16.23;8.00;;;9.70;99.90;;;;;;6139238;23;20005;-36
2023/12/31 05:20:56;;;;;;;13.10;6.53;;;9.70;99.90;;;;;;6140190;23;20530;-37
2023/12/31 05:23:21;;;;;;;13.40;6.80;;;9.60;99.90;;;;;;6138914;23;20716;-36
2023/12/31 05:25:49;;;;;;;13.13;5.97;;;9.70;99.90;;;;;;6140266;23;20016;-36
2023/12/31 05:28:14;;;;;;;8.82;5.15;;;9.70;99.90;;;;;;6139779;23;20005;-37
2023/12/31 05:30:41;;;;;;;9.30;4.70;;;9.60;99.90;;;;;;6141019;23;20013;-36
2023/12/31 05:33:07;;;;;;;10.85;4.88;;;9.70;99.90;;;;;;6139560;23;20005;-36
2023/12/31 05:35:33;;;;;;;7.95;4.45;;;9.70;99.90;;;;;;6140098;23;20045;-36
2023/12/31 05:37:58;;;;;;;7.82;4.68;;;9.70;99.90;;;;;;6139495;23;20452;-36
2023/12/31 05:40:24;;;;;;;8.77;4.63;;;9.60;99.90;;;;;;6139749;23;20009;-36
2023/12/31 05:42:50;;;;;;;8.73;4.40;;;9.60;99.90;;;;;;6140083;23;20036;-42
2023/12/31 05:45:18;;;;;;;7.45;4.25;;;9.70;99.90;;;;;;6139232;23;20009;-37
2023/12/31 05:47:44;;;;;;;5.22;3.30;;;9.60;99.90;;;;;;6140303;23;20012;-37
2023/12/31 05:50:12;;;;;;;5.25;3.10;;;9.60;99.90;;;;;;6138919;23;20013;-36
2023/12/31 05:52:38;;;;;;;3.15;2.25;;;9.70;99.90;;;;;;6138655;23;20036;-37
2023/12/31 05:55:04;;;;;;;3.25;2.35;;;9.70;99.90;;;;;;6138760;23;20349;-36
2023/12/31 05:57:29;;;;;;;2.72;2.08;;;9.70;99.90;;;;;;6139238;23;20037;-36
2023/12/31 05:59:59;;;;;;;3.13;2.13;;;9.70;99.90;;;;;;6138890;23;20064;-37
2023/12/31 06:02:25;;;;;;;2.95;2.30;;;9.70;99.90;;;;;;6139404;23;20432;-37
2023/12/31 06:04:50;;;;;;;2.95;1.83;;;9.70;99.90;;;;;;6139323;23;20021;-36
2023/12/31 06:07:16;;;;;;;1.80;1.58;;;9.70;99.90;;;;;;6138304;23;20001;-37
2023/12/31 06:09:42;;;;;;;3.10;1.77;;;9.70;99.90;;;;;;6140178;23;20757;-36
2023/12/31 06:12:08;;;;;;;2.33;1.63;;;9.80;99.90;;;;;;6139776;23;20037;-36
2023/12/31 06:14:33;;;;;;;2.40;1.83;;;9.80;99.90;;;;;;6140009;23;20040;-36
2023/12/31 06:16:59;;;;;;;2.55;1.85;;;9.80;99.90;;;;;;6139645;23;20037;-36
2023/12/31 06:19:25;;;;;;;2.47;2.17;;;9.90;99.90;;;;;;6139691;23;20013;-36
2023/12/31 06:21:51;;;;;;;3.08;2.33;;;9.90;99.90;;;;;;6138691;23;20054;-35
2023/12/31 06:24:17;;;;;;;2.55;1.80;;;9.90;99.90;;;;;;6138507;23;20054;-36
2023/12/31 06:26:42;;;;;;;2.45;2.00;;;9.90;99.90;;;;;;6140189;23;20108;-38
2023/12/31 06:29:08;;;;;;;1.90;1.70;;;9.90;99.90;;;;;;6139593;23;20021;-37
2023/12/31 06:31:34;;;;;;;2.80;1.95;;;9.90;99.90;;;;;;6140896;23;20096;-35
2023/12/31 06:33:59;;;;;;;2.28;2.08;;;9.90;99.90;;;;;;6139665;23;20006;-37
2023/12/31 06:36:25;;;;;;;2.65;2.17;;;9.90;99.90;;;;;;6138973;23;20009;-36
2023/12/31 06:38:50;;;;;;;3.38;2.22;;;9.90;99.90;;;;;;6140272;23;20013;-36
2023/12/31 06:41:19;;;;;;;2.63;1.83;;;9.90;99.90;;;;;;6137632;23;20010;-37
2023/12/31 06:43:45;;;;;;;2.40;1.98;;;9.90;99.90;;;;;;6138598;23;20018;-36
2023/12/31 06:46:11;;;;;;;1.55;1.45;;;9.90;99.90;;;;;;6139605;23;20009;-36
2023/12/31 06:48:40;;;;;;;2.40;2.20;;;9.90;99.90;;;;;;6138461;23;20005;-36
2023/12/31 06:51:06;;;;;;;2.55;2.25;;;9.90;99.90;;;;;;6139291;23;20191;-36
2023/12/31 06:53:34;;;;;;;2.20;2.00;;;9.90;99.90;;;;;;6139161;23;20719;-36
2023/12/31 06:56:10;;;;;;;2.25;2.03;;;9.90;99.90;;;;;;6138010;23;20016;-36
2023/12/31 06:58:37;;;;;;;5.10;2.35;;;9.90;99.90;;;;;;6139458;23;20486;-36
2023/12/31 07:01:05;;;;;;;2.33;2.10;;;9.90;99.90;;;;;;6138486;23;20063;-37
2023/12/31 07:03:31;;;;;;;2.28;2.08;;;9.80;99.90;;;;;;6137516;23;20397;-37
2023/12/31 07:05:57;;;;;;;3.13;2.20;;;9.80;99.90;;;;;;6139120;23;20002;-37
2023/12/31 07:08:23;;;;;;;3.35;2.10;;;9.80;99.90;;;;;;6139150;23;20033;-37
2023/12/31 07:10:52;;;;;;;4.32;2.17;;;9.80;99.90;;;;;;6139628;23;20009;-36
2023/12/31 07:13:24;;;;;;;2.45;2.10;;;9.80;99.90;;;;;;6138869;23;20005;-37
2023/12/31 07:15:50;;;;;;;3.40;2.45;;;9.80;99.90;;;;;;6139198;23;20701;-37
2023/12/31 07:18:15;;;;;;;3.50;2.58;;;9.80;99.90;;;;;;6139703;23;20002;-37
2023/12/31 07:20:41;;;;;;;5.15;2.28;;;9.80;99.90;;;;;;6139870;23;20009;-36
2023/12/31 07:23:07;;;;;;;2.13;1.92;;;9.80;99.90;;;;;;6138748;23;20226;-37
2023/12/31 07:25:32;;;;;;;2.17;1.98;;;9.80;99.90;;;;;;6139099;23;19998;-36
2023/12/31 07:28:01;;;;;;;3.58;2.30;;;9.80;99.90;;;;;;6140259;23;20026;-36
2023/12/31 07:30:27;;;;;;;2.08;1.92;;;9.80;99.90;;;;;;6138204;23;20016;-36
2023/12/31 07:32:53;;;;;;;2.30;2.03;;;9.80;99.90;;;;;;6140041;23;20013;-35
2023/12/31 07:35:18;;;;;;;2.28;2.08;;;9.90;99.90;;;;;;6140956;23;20009;-36
2023/12/31 07:37:44;;;;;;;2.65;2.33;;;9.90;99.90;;;;;;6140094;23;20799;-34
2023/12/31 07:40:10;;;;;;;2.00;1.80;;;9.80;99.90;;;;;;6139674;23;20033;-36
2023/12/31 07:42:39;;;;;;;2.42;2.05;;;9.90;99.90;;;;;;6141034;23;20005;-35
2023/12/31 07:45:06;;;;;;;2.35;2.15;;;9.90;99.90;;;;;;6140342;23;20017;-37
2023/12/31 07:47:35;;;;;;;2.15;1.95;;;9.90;99.90;;;;;;6141270;23;20060;-37
2023/12/31 07:50:02;;;;;;;2.20;2.00;;;9.90;99.90;;;;;;6141509;23;20794;-36
2023/12/31 07:52:28;;;;;;;3.17;2.20;;;9.90;99.90;;;;;;6139263;23;20037;-37
2023/12/31 07:54:54;;;;;;;2.17;1.98;;;9.90;99.90;;;;;;6141259;23;20040;-36
2023/12/31 07:57:19;;;;;;;2.22;2.03;;;9.90;99.90;;;;;;6140149;23;20080;-37
2023/12/31 07:59:51;;;;;;;2.30;1.95;;;10.00;99.90;;;;;;6140590;23;20098;-36
2023/12/31 08:02:16;;;;;;;2.40;2.20;;;10.00;99.90;;;;;;6139946;23;20017;-36
2023/12/31 08:04:42;;;;;;;2.15;1.98;;;10.00;99.90;;;;;;6140854;23;20047;-36
2023/12/31 08:07:08;;;;;;;3.17;2.45;;;10.00;99.90;;;;;;6139819;23;20054;-37
2023/12/31 08:09:34;;;;;;;2.20;1.83;;;10.00;99.90;;;;;;6141514;23;20016;-36
2023/12/31 08:11:59;;;;;;;1.80;1.70;;;10.00;99.90;;;;;;6140696;23;20341;-37
2023/12/31 08:14:25;;;;;;;2.55;2.03;;;10.10;99.90;;;;;;6139672;23;20020;-37
2023/12/31 08:16:51;;;;;;;2.30;2.10;;;10.00;99.90;;;;;;6141552;23;20002;-37
2023/12/31 08:19:16;;;;;;;3.42;2.35;;;10.10;99.90;;;;;;6139380;23;20006;-37
2023/12/31 08:21:47;;;;;;;2.50;2.30;;;10.00;99.90;;;;;;6140836;23;20008;-37
2023/12/31 08:24:20;;;;;;;2.42;2.22;;;10.10;99.90;;;;;;6140413;23;20017;-36
2023/12/31 08:26:46;;;;;;;;;;;10.10;99.90;;;;;;6141027;23;20662;-36
2023/12/31 08:29:11;;;;;;;2.13;1.92;;;10.10;99.90;;;;;;6140240;23;19930;-36
2023/12/31 08:31:37;;;;;;;3.33;2.60;;;10.10;99.90;;;;;;6140713;23;20203;-34
2023/12/31 08:34:03;;;;;;;2.72;2.47;;;10.10;99.90;;;;;;6140247;23;20033;-36
2023/12/31 08:36:29;;;;;;;3.38;2.60;;;10.20;99.90;;;;;;6141079;23;20032;-35
2023/12/31 08:38:55;;;;;;;3.33;2.78;;;10.10;99.90;;;;;;6141314;23;20080;-35
2023/12/31 08:41:21;;;;;;;3.42;2.67;;;10.20;99.90;;;;;;6141003;23;20005;-35
2023/12/31 08:43:48;;;;;;;2.67;2.35;;;10.20;99.90;;;;;;6140854;23;20156;-35
2023/12/31 08:46:14;;;;;;;2.30;2.00;;;10.20;99.90;;;;;;6140579;23;20002;-36
2023/12/31 08:48:40;;;;;;;2.70;2.50;;;10.30;99.90;;;;;;6140086;23;20581;-36
2023/12/31 08:51:06;;;;;;;2.63;2.15;;;10.30;99.90;;;;;;6139649;23;20149;-35
2023/12/31 08:53:32;;;;;;;2.88;2.40;;;10.30;99.90;;;;;;6139055;23;20080;-35
2023/12/31 08:55:59;;;;;;;2.42;2.10;;;10.40;99.90;;;;;;6139399;23;20052;-36
2023/12/31 08:58:27;;;;;;;2.70;2.50;;;10.40;99.90;;;;;;6140001;23;20009;-36
2023/12/31 09:00:53;;;;;;;2.80;2.28;;;10.40;99.90;;;;;;6140391;23;20005;-37
2023/12/31 09:03:19;;;;;;;4.10;2.22;;;10.50;99.90;;;;;;6138279;23;20017;-35
2023/12/31 09:05:46;;;;;;;3.17;2.10;;;10.50;99.90;;;;;;6140391;23;20013;-35
2023/12/31 09:08:11;;;;;;;2.70;2.40;;;10.50;99.90;;;;;;6139645;23;20088;-35
2023/12/31 09:10:37;;;;;;;2.97;1.92;;;10.50;99.90;;;;;;6138653;23;20009;-35
2023/12/31 09:13:03;;;;;;;2.35;2.15;;;10.50;99.90;;;;;;6139944;23;20009;-36
2023/12/31 09:15:29;;;;;;;2.83;2.45;;;10.60;99.90;;;;;;6138666;23;20005;-35
2023/12/31 09:17:55;;;;;;;2.65;2.38;;;10.60;99.90;;;;;;6139749;23;20016;-36
2023/12/31 09:20:22;;;;;;;2.85;2.55;;;10.60;99.90;;;;;;6138245;23;20112;-36
2023/12/31 09:22:52;;;;;;;3.38;2.60;;;10.60;99.90;;;;;;6139668;23;20108;-36
2023/12/31 09:25:19;;;;;;;2.92;2.33;;;10.70;99.90;;;;;;6140033;23;20274;-39
2023/12/31 09:27:45;;;;;;;3.03;2.55;;;10.70;99.90;;;;;;6140748;23;20001;-36
2023/12/31 09:30:11;;;;;;;3.08;2.50;;;10.70;99.90;;;;;;6139159;23;20032;-37
2023/12/31 09:32:36;;;;;;;2.75;2.55;;;10.70;99.90;;;;;;6139708;23;20064;-36
2023/12/31 09:35:02;;;;;;;2.97;2.38;;;10.80;99.90;;;;;;6140229;23;20035;-38
2023/12/31 09:37:29;;;;;;;3.00;2.70;;;10.80;99.90;;;;;;6137406;23;20044;-36
2023/12/31 09:39:55;;;;;;;2.50;2.30;;;10.80;99.90;;;;;;6139548;23;20018;-35
2023/12/31 09:42:33;;;;;;;2.80;2.17;;;10.90;99.90;;;;;;6141361;23;20005;-36
2023/12/31 09:45:02;;;;;;;4.50;2.65;;;10.90;99.90;;;;;;6139369;23;20076;-36
2023/12/31 09:47:28;;;;;;;3.00;2.70;;;10.80;99.90;;;;;;6140355;23;20010;-38
2023/12/31 09:49:56;;;;;;;3.17;2.88;;;10.90;99.90;;;;;;6140563;23;20012;-37
2023/12/31 09:52:23;;;;;;;2.83;2.63;;;10.80;99.90;;;;;;6139397;23;20006;-36
2023/12/31 09:54:49;;;;;;;2.90;2.25;;;10.80;99.90;;;;;;6141133;23;20005;-37
2023/12/31 09:57:18;;;;;;;2.20;2.00;;;10.80;99.90;;;;;;6138939;23;20009;-35
2023/12/31 09:59:48;;;;;;;2.15;1.95;;;10.80;99.90;;;;;;6138990;23;20446;-36
2023/12/31 10:02:21;;;;;;;2.30;1.83;;;10.80;99.90;;;;;;6139049;23;20027;-36
2023/12/31 10:04:49;;;;;;;2.10;1.90;;;10.80;99.90;;;;;;6138653;23;20020;-35
2023/12/31 10:07:15;;;;;;;1.55;1.45;;;10.80;99.90;;;;;;6139343;23;20002;-36
2023/12/31 10:09:42;;;;;;;2.72;1.70;;;10.90;99.90;;;;;;6139799;23;20006;-39
2023/12/31 10:12:08;;;;;;;1.63;1.52;;;10.90;99.90;;;;;;6138028;23;20535;-36
2023/12/31 10:14:34;;;;;;;2.38;1.80;;;10.90;99.90;;;;;;6138639;23;20319;-36
2023/12/31 10:16:59;;;;;;;1.58;1.40;;;10.90;99.90;;;;;;6137769;23;20016;-36
2023/12/31 10:19:25;;;;;;;2.33;1.73;;;11.00;99.90;;;;;;6137933;23;20008;-37
2023/12/31 10:21:51;;;;;;;1.58;1.48;;;11.00;99.90;;;;;;6139168;23;20467;-36
2023/12/31 10:24:29;;;;;;;1.45;1.35;;;11.00;99.90;;;;;;6138550;23;20084;-36
2023/12/31 10:27:02;;;;;;;1.20;1.10;;;11.00;99.90;;;;;;6139381;23;20298;-36
2023/12/31 10:29:28;;;;;;;1.88;1.27;;;11.00;99.90;;;;;;6138697;23;20444;-36
2023/12/31 10:31:54;;;;;;;1.50;1.35;;;11.00;99.90;;;;;;6138819;23;20052;-35
2023/12/31 10:34:20;;;;;;;1.75;1.10;;;11.00;99.90;;;;;;6137299;23;20036;-39
2023/12/31 10:36:47;;;;;;;2.13;1.63;;;10.90;99.90;;;;;;6138878;23;20068;-37
2023/12/31 10:39:29;;;;;;;1.45;1.35;;;10.90;99.90;;;;;;6138648;23;20017;-36
2023/12/31 10:42:03;;;;;;;1.70;1.40;;;10.90;99.90;;;;;;6137538;23;20084;-35
2023/12/31 10:44:32;;;;;;;1.67;1.40;;;11.00;99.90;;;;;;6138852;23;20013;-36
2023/12/31 10:47:02;;;;;;;1.58;1.30;;;11.00;99.90;;;;;;6139168;23;20006;-35
2023/12/31 10:49:30;;;;;;;1.60;1.50;;;11.00;99.90;;;;;;6140154;23;20111;-36
2023/12/31 10:51:59;;;;;;;1.77;1.42;;;11.00;99.90;;;;;;6140047;23;20061;-36
2023/12/31 10:54:43;;;;;;;1.92;1.33;;;11.00;99.90;;;;;;6138800;23;20425;-36
2023/12/31 10:57:09;;;;;;;1.40;1.30;;;11.00;99.90;;;;;;6139310;23;20016;-36
2023/12/31 10:59:38;;;;;;;1.52;1.40;;;11.00;99.90;;;;;;6139444;23;20009;-39
2023/12/31 11:02:04;;;;;;;1.48;1.00;;;11.00;99.90;;;;;;6139034;23;20017;-36
2023/12/31 11:04:33;;;;;;;1.70;1.30;;;11.10;99.90;;;;;;6139769;23;20013;-36
2023/12/31 11:07:01;;;;;;;1.58;0.98;;;11.10;99.90;;;;;;6139538;23;20540;-35
2023/12/31 11:09:27;;;;;;;1.67;1.02;;;11.10;99.90;;;;;;6138991;23;20009;-36
2023/12/31 11:11:53;;;;;;;1.40;1.30;;;11.00;99.90;;;;;;6139524;23;20044;-38
2023/12/31 11:14:27;;;;;;;2.00;1.15;;;11.00;99.90;;;;;;6138993;23;20013;-36
2023/12/31 11:17:17;;;;;;;1.58;1.40;;;11.00;99.90;;;;;;6139664;23;20016;-36
2023/12/31 11:20:16;;;;;;;3.10;1.70;;;10.90;99.90;;;;;;6138995;23;20325;-37
2023/12/31 11:23:04;;;;;;;2.03;1.42;;;10.80;99.90;;;;;;6139349;23;20084;-37
2023/12/31 11:25:31;;;;;;;1.75;1.25;;;10.70;99.90;;;;;;6139942;23;20096;-36
2023/12/31 11:27:57;;;;;;;3.08;1.20;;;10.60;99.90;;;;;;6139656;23;20006;-36
2023/12/31 11:30:52;;;;;;;2.08;0.80;;;10.50;99.90;;;;;;6137842;23;20016;-37
2023/12/31 11:33:24;;;;;;;1.52;1.00;;;10.40;99.90;;;;;;6139284;23;20457;-36
2023/12/31 11:35:52;;;;;;;1.00;0.80;;;10.40;99.90;;;;;;6139744;23;20034;-37
2023/12/31 11:38:21;;;;;;;1.30;0.93;;;10.40;99.90;;;;;;6138553;23;20005;-36
2023/12/31 11:40:48;;;;;;;1.38;1.00;;;10.50;99.90;;;;;;6138339;23;20006;-36
2023/12/31 11:43:19;;;;;;;1.67;1.25;;;10.50;99.90;;;;;;6136863;23;20002;-36
2023/12/31 11:45:49;;;;;;;1.58;0.90;;;10.60;99.90;;;;;;6138237;23;20009;-36
2023/12/31 11:48:25;;;;;;;1.90;1.13;;;10.70;99.90;;;;;;6136918;23;20006;-36
2023/12/31 11:50:52;;;;;;;1.80;1.10;;;10.60;99.90;;;;;;6137193;23;20045;-36
2023/12/31 11:53:21;;;;;;;0.82;0.82;;;10.60;99.90;;;;;;6138686;23;20010;-37
2023/12/31 11:56:01;;;;;;;1.25;0.80;;;10.60;99.90;;;;;;6138813;23;20190;-35
2023/12/31 11:58:29;;;;;;;2.95;0.93;;;10.50;99.90;;;;;;6138371;23;20080;-36
2023/12/31 12:00:55;;;;;;;3.63;1.08;;;10.50;99.90;;;;;;6139551;23;20013;-36
2023/12/31 12:03:21;;;;;;;1.75;0.80;;;10.40;99.90;;;;;;6138976;23;20049;-35
2023/12/31 12:05:52;;;;;;;2.47;1.02;;;10.40;99.90;;;;;;6138691;23;20033;-36
2023/12/31 12:08:17;;;;;;;1.73;1.00;;;10.40;99.90;;;;;;6138891;23;20380;-36
2023/12/31 12:10:43;;;;;;;1.88;1.00;;;10.30;99.90;;;;;;6138759;23;20500;-36
2023/12/31 12:13:10;;;;;;;2.80;1.15;;;10.30;99.90;;;;;;6138044;23;20136;-40
2023/12/31 12:15:36;;;;;;;2.25;0.90;;;10.20;99.90;;;;;;6139199;23;20041;-36
2023/12/31 12:18:13;;;;;;;2.13;0.90;;;10.20;99.90;;;;;;6139461;23;20009;-36
2023/12/31 12:20:38;;;;;;;1.50;1.08;;;10.10;99.90;;;;;;6140398;23;20041;-36
2023/12/31 12:23:05;;;;;;;0.95;0.70;;;10.10;99.90;;;;;;6141293;23;20028;-36
2023/12/31 12:25:31;;;;;;;1.38;0.63;;;10.10;99.90;;;;;;6139271;23;20512;-36
2023/12/31 12:27:57;;;;;;;2.17;0.77;;;10.10;99.90;;;;;;6140741;23;20101;-36
2023/12/31 12:30:26;;;;;;;1.40;0.82;;;10.10;99.90;;;;;;6140278;23;20476;-37
2023/12/31 12:32:52;;;;;;;2.78;1.33;;;10.20;99.90;;;;;;6140264;23;20101;-36
2023/12/31 12:35:18;;;;;;;1.13;0.82;;;10.20;99.90;;;;;;6140553;23;20140;-37
2023/12/31 12:37:47;;;;;;;2.22;0.90;;;10.20;99.90;;;;;;6140298;23;20010;-36
2023/12/31 12:40:19;;;;;;;1.50;1.00;;;10.20;99.90;;;;;;6138574;23;20028;-36
2023/12/31 12:42:48;;;;;;;1.65;0.70;;;10.30;99.90;;;;;;6140057;23;20014;-36
2023/12/31 12:45:15;;;;;;;0.93;0.80;;;10.30;99.90;;;;;;6140273;23;20017;-35
2023/12/31 12:47:44;;;;;;;2.95;0.90;;;10.30;99.90;;;;;;6140468;23;20444;-37
2023/12/31 12:50:13;;;;;;;2.55;1.20;;;10.30;99.90;;;;;;6140386;23;20009;-37
2023/12/31 12:52:38;;;;;;;1.38;0.93;;;10.40;99.90;;;;;;6140685;23;20337;-37